Time;durP1;ratioP1;P1;durP2;ratioP2;P2;SDS_P1;SDS_P2;PMS_P1;PMS_P2;Temp;Humidity;BMP_temperature;BMP_pressure;BME280_temperature;BME280_humidity;BME280_pressure;Samples;Min_cycle;Max_cycle;Signal;HPM_P1;HPM_P2
2023/05/04 00:02:34;;;;;;;27.40;14.30;;;;;;;5.55;79.58;101537.97;218449;1288;139878;-91
2023/05/04 00:07:35;;;;;;;30.60;13.80;;;;;;;5.49;79.51;101532.81;218986;1288;139187;-92
2023/05/04 00:12:35;;;;;;;30.80;15.50;;;;;;;5.43;80.16;101534.48;218233;1288;139283;-92
2023/05/04 00:17:36;;;;;;;32.70;16.70;;;;;;;5.37;80.20;101532.37;218721;1288;139127;-93
2023/05/04 00:22:36;;;;;;;44.00;21.10;;;;;;;5.32;80.74;101529.09;218378;1287;138954;-92
2023/05/04 00:27:37;;;;;;;39.20;20.30;;;;;;;5.25;81.37;101522.13;218841;1288;138899;-92
2023/05/04 00:32:38;;;;;;;43.60;21.10;;;;;;;5.17;80.95;101526.10;218443;1288;139139;-92
2023/05/04 00:37:38;;;;;;;45.70;21.20;;;;;;;5.08;81.36;101524.71;218980;1288;138805;-92
2023/05/04 00:42:39;;;;;;;44.30;20.60;;;;;;;5.02;81.60;101525.38;218259;1287;139225;-92
2023/05/04 00:47:40;;;;;;;38.30;19.70;;;;;;;4.96;81.35;101530.71;219013;1287;139139;-91
2023/05/04 00:52:42;;;;;;;34.50;18.20;;;;;;;4.90;82.08;101527.12;218217;1288;139046;-91
2023/05/04 00:57:43;;;;;;;33.40;16.90;;;;;;;4.83;82.61;101532.16;218980;1288;139117;-92
2023/05/04 01:02:43;;;;;;;29.90;16.70;;;;;;;4.78;82.73;101534.04;218636;1288;138640;-91
2023/05/04 01:08:08;;;;;;;39.90;20.60;;;;;;;4.71;82.81;101536.48;219014;1288;138807;-92
2023/05/04 01:13:11;;;;;;;42.70;19.30;;;;;;;4.63;83.43;101538.71;218401;1288;141003;-91
2023/05/04 01:18:12;;;;;;;46.40;22.60;;;;;;;4.56;82.99;101538.07;219052;1288;139029;-91
2023/05/04 01:23:13;;;;;;;31.90;18.00;;;;;;;4.50;83.22;101540.70;218502;1287;139009;-92
2023/05/04 01:28:39;;;;;;;33.80;16.80;;;;;;;4.46;83.20;101545.13;219039;1288;139331;-92
2023/05/04 01:33:40;;;;;;;34.40;17.50;;;;;;;4.40;83.64;101537.64;218403;1288;139461;-92
2023/05/04 01:38:41;;;;;;;39.20;19.50;;;;;;;4.34;83.45;101535.16;219123;1287;96830;-92
2023/05/04 01:43:42;;;;;;;33.10;17.20;;;;;;;4.30;83.80;101529.78;218530;1288;138912;-92
2023/05/04 01:48:42;;;;;;;29.80;14.60;;;;;;;4.24;83.76;101532.73;218959;1287;138911;-92
2023/05/04 01:53:43;;;;;;;26.00;14.10;;;;;;;4.19;84.03;101528.88;218204;1288;139831;-92
2023/05/04 01:58:43;;;;;;;23.90;12.30;;;;;;;4.13;83.90;101526.56;219003;1288;138797;-93
2023/05/04 02:03:44;;;;;;;26.90;13.10;;;;;;;4.10;84.10;101524.13;218217;1288;138942;-92
2023/05/04 02:08:45;;;;;;;29.70;13.60;;;;;;;4.06;84.46;101525.20;218908;1288;105529;-92
2023/05/04 02:13:46;;;;;;;31.40;13.30;;;;;;;4.01;84.41;101526.45;218221;1288;138869;-92
2023/05/04 02:18:46;;;;;;;25.90;12.50;;;;;;;3.98;84.87;101524.46;218590;1288;139176;-92
2023/05/04 02:23:47;;;;;;;24.40;11.70;;;;;;;3.93;84.67;101520.48;218195;1291;138910;-93
2023/05/04 02:28:47;;;;;;;21.70;11.50;;;;;;;3.89;84.31;101521.02;218838;1290;139042;-92
2023/05/04 02:33:50;;;;;;;28.10;12.90;;;;;;;3.83;85.32;101521.97;218466;1288;138927;-92
2023/05/04 02:38:50;;;;;;;25.40;12.30;;;;;;;3.75;85.06;101518.86;219091;1287;105780;-93
2023/05/04 02:43:51;;;;;;;25.10;12.00;;;;;;;3.71;85.45;101523.81;218318;1289;139731;-93
2023/05/04 02:48:51;;;;;;;26.80;12.30;;;;;;;3.64;85.68;101522.20;219082;1288;138821;-92
2023/05/04 02:53:52;;;;;;;31.00;14.00;;;;;;;3.59;85.74;101520.62;218267;1288;139447;-91
2023/05/04 02:58:52;;;;;;;31.20;12.80;;;;;;;3.54;85.86;101525.13;218797;1287;139081;-92
2023/05/04 03:03:53;;;;;;;26.70;13.60;;;;;;;3.50;85.43;101523.93;218473;1288;139173;-92
2023/05/04 03:08:53;;;;;;;34.80;16.60;;;;;;;3.45;86.16;101523.20;219172;1289;96161;-92
2023/05/04 03:13:54;;;;;;;26.40;15.10;;;;;;;3.40;86.24;101522.00;218444;1289;138899;-92
2023/05/04 03:18:54;;;;;;;32.80;16.50;;;;;;;3.37;86.54;101524.19;218943;1289;138822;-92
2023/05/04 03:23:55;;;;;;;39.20;16.60;;;;;;;3.29;86.90;101525.16;218440;1288;139357;-92
2023/05/04 03:28:56;;;;;;;33.20;17.60;;;;;;;3.26;86.93;101525.70;218796;1287;139074;-91
2023/05/04 03:33:57;;;;;;;31.00;16.70;;;;;;;3.22;87.36;101525.79;218581;1289;139647;-92
2023/05/04 03:38:58;;;;;;;31.80;15.50;;;;;;;3.18;87.81;101526.55;218339;1289;139599;-92
2023/05/04 03:43:58;;;;;;;26.10;13.20;;;;;;;3.15;87.73;101526.69;218973;1288;138659;-92
2023/05/04 03:48:59;;;;;;;27.70;14.80;;;;;;;3.13;88.04;101528.84;218346;1288;139271;-91
2023/05/04 03:54:00;;;;;;;32.20;15.10;;;;;;;3.11;88.64;101529.64;218910;1289;138840;-93
2023/05/04 03:59:00;;;;;;;31.30;14.90;;;;;;;3.10;88.73;101532.83;218218;1289;138896;-93
2023/05/04 04:04:01;;;;;;;25.50;14.00;;;;;;;3.10;88.86;101526.94;218947;1288;138860;-93
2023/05/04 04:09:10;;;;;;;25.50;14.20;;;;;;;3.15;89.30;101530.27;213891;1286;635704;-92
2023/05/04 04:14:11;;;;;;;33.70;17.00;;;;;;;3.15;90.10;101532.66;213740;1291;137442;-92
2023/05/04 04:19:11;;;;;;;28.50;15.80;;;;;;;3.18;90.77;101534.91;212861;1292;534079;-93
2023/05/04 04:24:11;;;;;;;29.60;16.40;;;;;;;3.20;91.01;101532.48;214102;1289;138077;-92
2023/05/04 04:29:12;;;;;;;29.80;15.80;;;;;;;3.23;92.06;101531.85;213685;1291;138294;-93
2023/05/04 04:34:13;;;;;;;32.20;17.80;;;;;;;3.29;92.61;101533.33;214171;1290;137801;-92
2023/05/04 04:39:15;;;;;;;35.10;19.20;;;;;;;3.35;92.11;101533.10;213515;1291;137995;-92
2023/05/04 04:44:16;;;;;;;30.80;17.90;;;;;;;3.41;92.05;101533.84;213802;1289;137609;-92
2023/05/04 04:49:17;;;;;;;31.50;17.10;;;;;;;3.47;92.04;101526.81;213416;1289;138804;-93
2023/05/04 04:54:17;;;;;;;35.30;16.90;;;;;;;3.55;92.48;101525.40;213917;1289;138066;-92
2023/05/04 04:59:19;;;;;;;37.10;19.60;;;;;;;3.64;93.03;101522.52;213337;1291;138896;-92
2023/05/04 05:04:21;;;;;;;40.60;19.30;;;;;;;3.76;94.01;101523.16;214240;1289;138127;-94
2023/05/04 05:09:21;;;;;;;36.00;20.00;;;;;;;3.89;94.69;101526.30;213546;1292;138143;-92
2023/05/04 05:14:22;;;;;;;43.10;22.50;;;;;;;4.07;96.24;101529.16;214053;1288;137690;-92
2023/05/04 05:19:23;;;;;;;38.00;22.00;;;;;;;4.35;97.47;101532.64;213676;1289;138514;-92
2023/05/04 05:24:23;;;;;;;41.60;21.50;;;;;;;4.55;98.22;101533.72;214609;1292;139833;-88
2023/05/04 05:29:24;;;;;;;44.30;21.60;;;;;;;4.88;99.48;101540.52;213943;1291;138398;-91
2023/05/04 05:34:25;;;;;;;36.00;20.30;;;;;;;5.41;99.88;101542.14;214729;1290;138290;-92
2023/05/04 05:39:25;;;;;;;36.50;19.50;;;;;;;6.14;100.00;101540.52;213617;1292;139071;-90
2023/05/04 05:44:25;;;;;;;36.80;18.00;;;;;;;7.01;99.79;101532.23;214079;1291;138168;-87
2023/05/04 05:49:26;;;;;;;29.00;15.70;;;;;;;7.94;98.11;101534.98;213504;1292;139829;-87
2023/05/04 05:54:30;;;;;;;25.00;14.70;;;;;;;8.92;95.19;101537.40;214099;1292;138988;-87
2023/05/04 05:59:30;;;;;;;25.00;13.10;;;;;;;9.84;89.98;101532.75;213368;1289;138067;-87
2023/05/04 06:04:31;;;;;;;21.60;11.10;;;;;;;10.69;88.59;101536.92;213993;1291;138563;-87
2023/05/04 06:09:31;;;;;;;22.30;11.80;;;;;;;11.49;86.81;101536.79;213762;1292;138441;-87
2023/05/04 06:14:32;;;;;;;19.60;10.50;;;;;;;12.31;83.96;101537.96;214537;1294;96636;-87
2023/05/04 06:19:35;;;;;;;18.80;11.50;;;;;;;13.03;81.37;101535.67;213441;1291;138493;-87
2023/05/04 06:24:35;;;;;;;17.40;10.00;;;;;;;13.69;78.72;101529.64;213966;1291;138523;-87
2023/05/04 06:29:40;;;;;;;21.10;10.50;;;;;;;14.25;73.76;101524.02;213351;1290;139639;-85
2023/05/04 06:34:40;;;;;;;17.30;9.40;;;;;;;14.57;70.65;101525.01;213795;1291;138575;-85
2023/05/04 06:39:40;;;;;;;17.10;10.10;;;;;;;14.80;70.17;101529.23;213434;1289;138022;-85
2023/05/04 06:44:41;;;;;;;17.90;8.20;;;;;;;14.95;68.07;101526.24;214081;1289;96619;-86
2023/05/04 06:49:42;;;;;;;15.50;8.60;;;;;;;14.95;66.29;101531.23;213220;1290;138025;-85
2023/05/04 06:54:43;;;;;;;16.60;8.20;;;;;;;14.89;64.16;101527.29;214351;1291;137979;-86
2023/05/04 06:59:43;;;;;;;15.60;7.70;;;;;;;14.77;63.09;101525.09;214092;1293;138116;-86
2023/05/04 07:04:43;;;;;;;11.60;6.60;;;;;;;14.69;63.02;101528.80;214289;1291;137926;-86
2023/05/04 07:09:46;;;;;;;13.60;6.60;;;;;;;14.63;61.34;101529.84;213439;1294;139726;-85
2023/05/04 07:14:47;;;;;;;15.50;6.30;;;;;;;14.48;61.34;101530.98;214203;1293;95376;-85
2023/05/04 07:19:53;;;;;;;12.40;5.40;;;;;;;14.50;61.27;101521.52;213327;1292;137360;-86
2023/05/04 07:24:56;;;;;;;11.60;6.20;;;;;;;14.50;60.66;101517.88;213821;1293;137660;-84
2023/05/04 07:29:57;;;;;;;15.10;7.00;;;;;;;14.48;58.82;101514.29;213576;1290;138028;-86
2023/05/04 07:34:57;;;;;;;11.00;4.60;;;;;;;14.44;59.70;101512.10;213963;1290;138278;-85
2023/05/04 07:40:04;;;;;;;8.30;4.50;;;;;;;14.38;58.75;101513.30;213510;1292;137899;-86
2023/05/04 07:45:07;;;;;;;13.50;5.70;;;;;;;14.46;58.71;101511.97;214450;1291;107956;-85
2023/05/04 07:50:08;;;;;;;13.60;5.30;;;;;;;14.51;58.88;101511.39;213893;1290;140330;-86
2023/05/04 07:55:08;;;;;;;11.50;4.40;;;;;;;14.62;57.73;101507.89;214629;1291;137707;-84
2023/05/04 08:00:09;;;;;;;10.80;3.70;;;;;;;14.66;56.90;101508.89;213649;1291;138345;-86
2023/05/04 08:05:10;;;;;;;8.70;4.10;;;;;;;14.76;55.43;101509.55;213874;1293;137767;-85
2023/05/04 08:10:11;;;;;;;13.00;3.80;;;;;;;14.92;56.11;101509.10;213518;1292;137816;-85
2023/05/04 08:15:12;;;;;;;8.60;3.40;;;;;;;15.30;55.73;101503.94;214254;1291;95233;-85
2023/05/04 08:20:13;;;;;;;15.30;4.80;;;;;;;15.95;57.81;101496.27;213432;1294;137544;-86
2023/05/04 08:25:13;;;;;;;6.10;3.10;;;;;;;16.83;55.74;101499.26;213858;1291;137449;-86
2023/05/04 08:30:15;;;;;;;12.30;4.00;;;;;;;17.68;53.73;101494.82;213418;1289;138144;-86
2023/05/04 08:35:16;;;;;;;11.50;4.20;;;;;;;18.46;53.23;101486.52;213965;1289;137702;-85
2023/05/04 08:40:17;;;;;;;9.10;3.90;;;;;;;19.35;51.68;101490.09;213476;1291;138359;-85
2023/05/04 08:45:18;;;;;;;11.80;4.20;;;;;;;20.23;52.28;101493.63;213952;1290;95240;-87
2023/05/04 08:50:18;;;;;;;8.20;3.80;;;;;;;21.01;47.55;101492.34;213707;1292;138053;-86
2023/05/04 08:55:19;;;;;;;8.00;3.60;;;;;;;21.67;46.82;101498.71;214450;1291;137277;-86
2023/05/04 09:00:21;;;;;;;9.00;3.70;;;;;;;22.39;47.02;101490.50;213559;1294;137676;-87
2023/05/04 09:05:22;;;;;;;9.70;3.20;;;;;;;23.00;45.13;101488.36;213556;1293;138149;-87
2023/05/04 09:10:23;;;;;;;8.80;3.90;;;;;;;23.87;45.65;101493.36;212879;1294;138004;-86
2023/05/04 09:15:24;;;;;;;11.40;4.00;;;;;;;24.62;41.51;101491.93;213770;1294;95378;-85
2023/05/04 09:20:25;;;;;;;8.40;3.30;;;;;;;23.65;40.03;101490.31;213452;1292;137631;-86
2023/05/04 09:25:26;;;;;;;9.10;3.50;;;;;;;24.01;40.16;101492.13;214049;1291;138360;-86
2023/05/04 09:30:26;;;;;;;9.60;3.70;;;;;;;24.22;38.17;101476.85;213543;1291;138883;-86
2023/05/04 09:35:31;;;;;;;9.50;4.00;;;;;;;24.70;38.06;101484.37;214622;1292;137686;-85
2023/05/04 09:40:37;;;;;;;11.90;4.00;;;;;;;25.07;36.21;101477.59;213836;1291;138339;-87
2023/05/04 09:45:39;;;;;;;9.80;3.90;;;;;;;25.72;38.82;101470.69;214025;1292;137770;-87
2023/05/04 09:50:53;;;;;;;25.40;4.90;;;;;;;26.72;39.02;101469.09;213667;1293;138251;-87
2023/05/04 09:56:06;;;;;;;10.50;4.20;;;;;;;27.14;35.02;101450.04;214180;1292;138063;-88
2023/05/04 10:01:07;;;;;;;8.90;3.80;;;;;;;27.24;34.05;101442.17;213544;1292;138063;-86
2023/05/04 10:06:10;;;;;;;9.10;3.90;;;;;;;27.48;34.49;101438.73;214103;1289;138037;-88
2023/05/04 10:11:11;;;;;;;7.60;3.00;;;;;;;27.82;34.53;101433.27;213642;1289;138358;-89
2023/05/04 10:16:37;;;;;;;9.30;4.10;;;;;;;28.36;33.13;101433.40;214164;1291;137653;-86
2023/05/04 10:21:51;;;;;;;10.30;4.20;;;;;;;28.65;32.22;101437.63;213981;1294;137864;-86
2023/05/04 10:27:03;;;;;;;7.60;4.10;;;;;;;28.35;29.88;101436.52;214251;1292;94299;-88
2023/05/04 10:32:06;;;;;;;20.00;4.40;;;;;;;27.97;30.85;101432.94;213571;1292;137955;-86
2023/05/04 10:37:16;;;;;;;10.00;3.70;;;;;;;27.44;30.63;101417.95;214970;1290;137697;-86
2023/05/04 10:42:17;;;;;;;9.30;3.60;;;;;;;27.32;31.68;101403.01;213904;1292;138196;-83
2023/05/04 10:47:31;;;;;;;10.60;4.30;;;;;;;27.12;30.60;101403.61;213949;1291;138379;-85
2023/05/04 10:52:45;;;;;;;8.50;4.00;;;;;;;27.07;30.83;101395.17;213449;1292;137729;-86
2023/05/04 10:57:54;;;;;;;10.70;4.30;;;;;;;27.30;32.55;101388.98;214275;1294;137559;-84
2023/05/04 11:03:01;;;;;;;6.90;3.60;;;;;;;27.32;31.08;101378.48;213853;1293;138466;-85
2023/05/04 11:08:25;;;;;;;8.70;3.70;;;;;;;26.85;31.53;101384.41;214141;1290;138630;-85
2023/05/04 11:13:29;;;;;;;10.20;4.60;;;;;;;26.81;32.91;101382.79;213829;1293;138028;-85
2023/05/04 11:18:33;;;;;;;10.90;4.00;;;;;;;26.91;31.54;101376.08;215431;1289;138515;-83
2023/05/04 11:23:33;;;;;;;9.40;4.20;;;;;;;26.61;31.04;101368.02;213869;1292;138594;-85
2023/05/04 11:28:34;;;;;;;11.60;4.40;;;;;;;26.76;32.15;101358.60;213883;1289;137584;-85
2023/05/04 11:33:35;;;;;;;9.70;3.80;;;;;;;26.97;32.34;101342.24;213448;1292;137613;-85
2023/05/04 11:38:36;;;;;;;9.50;3.90;;;;;;;27.22;31.50;101335.13;214187;1292;95259;-86
2023/05/04 11:43:37;;;;;;;13.50;4.40;;;;;;;27.40;31.34;101341.77;213503;1294;138444;-86
2023/05/04 11:48:38;;;;;;;9.00;4.00;;;;;;;27.51;31.15;101347.86;214187;1293;137665;-85
2023/05/04 11:53:40;;;;;;;8.80;3.70;;;;;;;27.38;29.75;101336.79;213517;1292;138850;-86
2023/05/04 11:58:41;;;;;;;13.50;4.00;;;;;;;27.34;30.19;101331.54;214002;1292;137483;-85
2023/05/04 12:03:41;;;;;;;9.60;3.90;;;;;;;27.25;29.58;101335.76;213392;1294;137801;-86
2023/05/04 12:08:42;;;;;;;15.00;4.30;;;;;;;26.97;30.34;101331.41;213983;1293;95246;-86
2023/05/04 12:13:44;;;;;;;8.30;3.70;;;;;;;26.99;29.86;101322.80;213375;1292;137322;-85
2023/05/04 12:18:46;;;;;;;10.20;3.60;;;;;;;26.94;29.73;101324.48;214605;1294;137424;-85
2023/05/04 12:23:47;;;;;;;11.10;4.20;;;;;;;26.84;29.33;101319.71;214321;1289;137626;-85
2023/05/04 12:28:47;;;;;;;8.90;3.90;;;;;;;26.51;30.44;101317.70;214354;1289;137811;-86
2023/05/04 12:33:49;;;;;;;8.10;3.20;;;;;;;26.41;29.60;101316.89;213860;1289;137963;-87
2023/05/04 12:38:49;;;;;;;8.50;3.70;;;;;;;26.21;30.95;101311.99;214431;1292;110874;-86
2023/05/04 12:43:50;;;;;;;6.90;3.00;;;;;;;26.37;30.55;101306.86;214218;1292;138105;-85
2023/05/04 12:48:50;;;;;;;8.80;3.50;;;;;;;26.26;31.46;101301.52;214459;1291;138243;-85
2023/05/04 12:53:51;;;;;;;10.10;4.60;;;;;;;26.19;30.37;101295.30;213998;1289;138451;-85
2023/05/04 12:58:51;;;;;;;11.60;3.30;;;;;;;26.02;29.32;101290.19;214646;1289;138382;-85
2023/05/04 13:03:52;;;;;;;8.80;4.10;;;;;;;25.73;30.14;101286.69;214317;1291;138450;-86
2023/05/04 13:08:52;;;;;;;9.00;4.30;;;;;;;25.22;30.32;101281.05;214483;1289;98038;-85
2023/05/04 13:13:52;;;;;;;11.10;3.60;;;;;;;24.97;32.27;101266.09;213765;1289;138483;-85
2023/05/04 13:18:56;;;;;;;8.90;3.50;;;;;;;25.15;31.71;101256.81;214058;1292;138448;-85
2023/05/04 13:23:58;;;;;;;10.30;4.00;;;;;;;25.18;32.02;101253.09;213782;1291;138117;-85
2023/05/04 13:28:59;;;;;;;8.90;3.90;;;;;;;25.42;33.18;101250.55;213861;1289;138554;-85
2023/05/04 13:34:00;;;;;;;9.00;3.50;;;;;;;25.55;32.43;101260.48;214529;1291;138093;-85
2023/05/04 13:39:00;;;;;;;10.10;3.50;;;;;;;25.19;31.20;101257.01;213861;1294;137905;-85
2023/05/04 13:44:01;;;;;;;6.60;3.20;;;;;;;24.83;32.12;101251.69;214368;1291;137710;-84
2023/05/04 13:49:01;;;;;;;10.40;4.00;;;;;;;24.89;33.50;101236.98;213694;1289;138877;-85
2023/05/04 13:54:02;;;;;;;8.80;3.30;;;;;;;24.98;33.64;101229.42;214420;1289;138368;-85
2023/05/04 13:59:02;;;;;;;8.50;3.30;;;;;;;24.75;32.96;101222.29;213797;1289;138964;-84
2023/05/04 14:04:03;;;;;;;11.20;4.70;;;;;;;24.64;32.80;101210.21;214858;1289;138332;-84
2023/05/04 14:09:04;;;;;;;11.10;3.90;;;;;;;24.72;33.47;101199.94;214248;1289;138050;-85
2023/05/04 14:14:04;;;;;;;8.10;3.80;;;;;;;24.46;32.84;101200.58;214495;1289;137837;-86
2023/05/04 14:19:05;;;;;;;9.90;4.20;;;;;;;24.01;33.34;101207.05;213788;1291;139057;-84
2023/05/04 14:24:05;;;;;;;8.10;4.10;;;;;;;23.73;33.11;101198.90;214429;1294;137693;-84
2023/05/04 14:29:06;;;;;;;11.20;4.20;;;;;;;23.45;34.58;101191.05;213874;1292;137984;-84
2023/05/04 14:34:06;;;;;;;9.10;3.20;;;;;;;23.68;34.29;101185.79;214607;1289;138341;-84
2023/05/04 14:39:07;;;;;;;8.20;3.40;;;;;;;23.50;33.88;101181.85;214427;1292;139003;-85
2023/05/04 14:44:07;;;;;;;9.90;3.90;;;;;;;23.15;34.42;101175.16;214966;1292;138637;-84
2023/05/04 14:49:08;;;;;;;13.00;5.40;;;;;;;22.84;32.88;101163.59;214270;1292;138128;-84
2023/05/04 14:54:08;;;;;;;16.40;6.40;;;;;;;22.37;34.43;101155.66;214460;1288;137982;-84
2023/05/04 14:59:08;;;;;;;10.10;3.80;;;;;;;22.49;36.09;101159.23;213963;1292;138568;-84
2023/05/04 15:04:09;;;;;;;12.50;4.50;;;;;;;22.68;37.96;101162.52;214350;1288;137931;-84
2023/05/04 15:09:09;;;;;;;9.60;3.80;;;;;;;22.83;38.57;101157.45;213989;1292;137978;-84
2023/05/04 15:14:10;;;;;;;7.70;3.70;;;;;;;22.86;35.59;101155.27;214362;1289;138022;-85
2023/05/04 15:19:10;;;;;;;8.60;3.90;;;;;;;22.73;37.13;101158.99;213949;1289;137819;-84
2023/05/04 15:24:11;;;;;;;10.50;3.80;;;;;;;22.60;37.97;101154.31;214659;1289;137953;-84
2023/05/04 15:29:12;;;;;;;11.10;4.40;;;;;;;22.49;36.20;101144.17;213714;1293;138208;-84
2023/05/04 15:34:12;;;;;;;9.00;3.80;;;;;;;22.31;38.14;101127.72;214429;1289;137951;-84
2023/05/04 15:39:14;;;;;;;10.80;4.30;;;;;;;22.13;39.17;101131.21;214031;1292;138197;-84
2023/05/04 15:44:14;;;;;;;8.20;3.70;;;;;;;22.07;38.29;101123.92;214861;1289;138588;-83
2023/05/04 15:49:15;;;;;;;9.40;4.40;;;;;;;21.93;36.09;101118.98;214684;1289;138012;-83
2023/05/04 15:54:15;;;;;;;8.60;3.40;;;;;;;21.59;34.15;101114.87;215017;1292;138795;-84
2023/05/04 15:59:16;;;;;;;7.80;3.30;;;;;;;21.16;34.39;101114.00;214424;1288;138136;-84
2023/05/04 16:04:17;;;;;;;12.40;4.10;;;;;;;20.92;36.74;101110.59;214497;1292;137711;-84
2023/05/04 16:09:19;;;;;;;7.60;3.60;;;;;;;20.69;36.42;101107.44;213929;1289;139011;-83
2023/05/04 16:14:20;;;;;;;7.90;2.70;;;;;;;20.49;37.86;101104.61;214272;1292;137646;-83
2023/05/04 16:19:21;;;;;;;13.30;4.30;;;;;;;20.39;39.36;101098.23;213660;1288;288846;-83
2023/05/04 16:24:21;;;;;;;10.50;3.90;;;;;;;20.22;36.90;101099.49;215219;1288;137939;-83
2023/05/04 16:29:22;;;;;;;13.90;5.30;;;;;;;19.99;37.08;101098.13;214486;1289;139153;-83
2023/05/04 16:34:22;;;;;;;11.00;4.60;;;;;;;19.77;36.67;101094.66;214387;1288;138129;-83
2023/05/04 16:39:26;;;;;;;10.40;3.90;;;;;;;19.54;37.56;101090.21;213939;1288;137773;-83
2023/05/04 16:44:28;;;;;;;8.80;3.20;;;;;;;19.33;37.07;101084.61;214363;1289;137547;-84
2023/05/04 16:49:29;;;;;;;8.70;3.50;;;;;;;19.13;40.29;101082.17;213773;1288;138001;-84
2023/05/04 16:54:29;;;;;;;8.30;3.30;;;;;;;19.02;41.14;101078.48;214410;1288;137821;-84
2023/05/04 16:59:30;;;;;;;7.70;3.30;;;;;;;18.87;41.44;101080.11;213728;1292;138442;-84
2023/05/04 17:04:30;;;;;;;7.50;3.40;;;;;;;18.79;43.07;101087.69;214318;1289;138737;-83
2023/05/04 17:09:31;;;;;;;7.90;3.30;;;;;;;18.66;44.05;101081.96;213936;1288;138223;-83
2023/05/04 17:14:33;;;;;;;8.00;3.20;;;;;;;18.55;45.69;101084.70;214452;1288;97051;-84
2023/05/04 17:19:34;;;;;;;6.00;3.00;;;;;;;18.45;46.02;101088.08;213884;1288;138048;-83
2023/05/04 17:24:35;;;;;;;10.40;3.30;;;;;;;18.29;46.00;101087.11;214357;1288;137588;-84
2023/05/04 17:29:35;;;;;;;8.70;2.90;;;;;;;18.09;46.27;101086.17;214279;1288;137965;-83
2023/05/04 17:34:36;;;;;;;15.20;3.50;;;;;;;17.97;46.69;101085.41;214247;1292;137711;-83
2023/05/04 17:39:37;;;;;;;10.50;4.00;;;;;;;17.83;46.77;101086.96;213738;1288;138777;-84
2023/05/04 17:44:37;;;;;;;11.40;4.20;;;;;;;17.64;45.67;101087.02;214434;1289;97932;-84
2023/05/04 17:49:37;;;;;;;15.60;5.40;;;;;;;17.39;45.46;101085.83;213793;1289;137840;-83
2023/05/04 17:54:38;;;;;;;17.80;6.60;;;;;;;17.15;45.96;101087.45;214173;1289;137945;-84
2023/05/04 17:59:39;;;;;;;20.20;6.90;;;;;;;16.99;47.01;101089.61;213749;1288;138407;-83
2023/05/04 18:04:40;;;;;;;19.90;5.80;;;;;;;16.79;47.15;101090.64;214352;1292;138643;-84
2023/05/04 18:09:40;;;;;;;11.40;5.00;;;;;;;16.57;47.53;101087.92;214295;1288;138026;-84
2023/05/04 18:14:41;;;;;;;11.50;5.10;;;;;;;16.38;48.32;101092.71;214563;1288;96734;-84
2023/05/04 18:19:42;;;;;;;14.60;5.70;;;;;;;16.23;48.28;101100.35;213773;1288;139929;-84
2023/05/04 18:24:46;;;;;;;10.60;4.60;;;;;;;16.07;48.89;101102.42;213946;1289;137792;-84
2023/05/04 18:29:47;;;;;;;10.90;4.00;;;;;;;15.95;49.92;101107.98;213411;1291;137920;-84
2023/05/04 18:34:50;;;;;;;11.40;4.60;;;;;;;15.82;49.93;101111.88;214163;1290;138028;-83
2023/05/04 18:39:51;;;;;;;8.90;3.60;;;;;;;15.68;50.42;101111.46;213959;1288;138386;-84
2023/05/04 18:44:55;;;;;;;9.30;4.00;;;;;;;15.55;50.84;101116.36;214309;1288;97944;-84
2023/05/04 18:49:56;;;;;;;12.60;4.40;;;;;;;15.38;51.72;101120.19;213653;1288;137897;-84
2023/05/04 18:54:56;;;;;;;10.80;5.20;;;;;;;15.21;52.84;101132.39;214265;1288;137638;-84
2023/05/04 18:59:57;;;;;;;13.60;4.90;;;;;;;15.04;52.31;101135.98;213708;1289;138162;-84
2023/05/04 19:04:57;;;;;;;13.50;4.80;;;;;;;14.86;52.73;101136.84;214452;1288;138008;-84
2023/05/04 19:09:58;;;;;;;13.80;4.70;;;;;;;14.75;53.63;101138.13;214009;1289;138100;-85
2023/05/04 19:14:58;;;;;;;9.60;4.10;;;;;;;14.63;54.31;101142.09;214722;1288;97545;-83
2023/05/04 19:20:00;;;;;;;11.20;3.50;;;;;;;14.50;54.56;101145.19;213675;1288;137575;-83
2023/05/04 19:25:02;;;;;;;7.20;3.40;;;;;;;14.38;55.33;101140.98;214068;1291;139456;-84
2023/05/04 19:30:06;;;;;;;7.70;3.80;;;;;;;14.29;55.49;101134.75;213707;1288;138166;-84
2023/05/04 19:35:07;;;;;;;12.40;4.90;;;;;;;14.20;55.62;101137.44;214247;1291;137652;-84
2023/05/04 19:40:08;;;;;;;11.10;4.60;;;;;;;14.12;55.96;101135.30;213766;1288;138380;-86
2023/05/04 19:45:09;;;;;;;12.90;6.10;;;;;;;14.05;56.29;101136.34;214407;1288;95409;-84
2023/05/04 19:50:12;;;;;;;17.70;7.60;;;;;;;13.95;56.35;101133.90;214095;1288;137914;-85
2023/05/04 19:55:13;;;;;;;16.20;6.60;;;;;;;13.85;55.99;101127.64;214827;1288;138654;-85
2023/05/04 20:00:15;;;;;;;12.00;6.10;;;;;;;13.76;55.76;101118.85;213750;1288;138209;-85
2023/05/04 20:05:16;;;;;;;12.30;5.80;;;;;;;13.67;56.30;101120.27;214522;1288;137778;-85
2023/05/04 20:10:17;;;;;;;13.70;5.40;;;;;;;13.60;56.02;101115.63;213619;1289;138848;-85
2023/05/04 20:15:17;;;;;;;9.10;4.10;;;;;;;13.54;55.51;101110.27;214623;1289;96711;-85
2023/05/04 20:20:20;;;;;;;13.10;4.90;;;;;;;13.52;55.59;101110.64;214061;1288;137763;-83
2023/05/04 20:25:21;;;;;;;12.30;5.70;;;;;;;13.48;55.92;101105.39;214559;1289;138096;-85
2023/05/04 20:30:22;;;;;;;10.10;4.70;;;;;;;13.43;55.41;101107.23;213727;1288;138682;-85
2023/05/04 20:35:23;;;;;;;13.30;4.90;;;;;;;13.42;55.68;101114.95;214325;1288;137768;-84
2023/05/04 20:40:24;;;;;;;13.20;5.50;;;;;;;13.38;55.90;101117.46;213889;1289;137999;-84
2023/05/04 20:45:24;;;;;;;12.70;4.90;;;;;;;13.34;57.09;101117.41;214898;1289;96671;-85
2023/05/04 20:50:25;;;;;;;12.20;4.20;;;;;;;13.30;56.89;101115.79;214127;1290;138254;-84
2023/05/04 20:55:26;;;;;;;11.40;5.00;;;;;;;13.23;57.23;101113.11;215428;1288;137606;-84
2023/05/04 21:00:27;;;;;;;12.10;5.10;;;;;;;13.17;58.18;101114.30;213986;1288;138911;-83
2023/05/04 21:05:27;;;;;;;11.00;4.80;;;;;;;13.13;58.86;101112.52;214546;1288;138681;-84
2023/05/04 21:10:27;;;;;;;11.00;5.30;;;;;;;13.09;57.62;101108.19;214520;1289;138147;-84
2023/05/04 21:15:28;;;;;;;11.70;5.80;;;;;;;13.05;57.02;101108.39;215113;1288;96694;-84
2023/05/04 21:20:29;;;;;;;12.10;5.30;;;;;;;13.02;56.07;101105.36;214456;1288;138483;-84
2023/05/04 21:25:29;;;;;;;11.30;5.40;;;;;;;13.00;55.80;101106.52;214256;1291;137598;-84
2023/05/04 21:30:30;;;;;;;12.00;5.80;;;;;;;12.98;55.66;101108.14;213721;1290;139087;-83
2023/05/04 21:35:30;;;;;;;12.60;5.90;;;;;;;12.95;55.21;101107.92;214632;1288;137931;-83
2023/05/04 21:40:31;;;;;;;14.60;5.80;;;;;;;12.93;55.46;101104.10;214040;1289;138858;-84
2023/05/04 21:45:32;;;;;;;13.50;5.70;;;;;;;12.91;55.44;101101.25;214385;1288;141707;-83
2023/05/04 21:50:32;;;;;;;12.80;6.30;;;;;;;12.87;55.67;101103.40;213713;1288;137919;-83
2023/05/04 21:55:32;;;;;;;14.20;7.00;;;;;;;12.84;55.06;101109.29;214201;1288;138365;-83
2023/05/04 22:00:33;;;;;;;14.30;6.60;;;;;;;12.81;55.20;101113.75;214102;1289;138504;-83
2023/05/04 22:05:33;;;;;;;15.60;6.30;;;;;;;12.78;55.48;101106.69;214454;1288;137824;-83
2023/05/04 22:10:34;;;;;;;16.30;7.80;;;;;;;12.75;55.71;101099.92;213942;1288;138205;-83
2023/05/04 22:15:34;;;;;;;14.70;7.00;;;;;;;12.70;56.07;101101.52;214410;1291;137889;-83
2023/05/04 22:20:35;;;;;;;15.50;7.70;;;;;;;12.65;56.23;101104.63;213838;1293;138034;-83
2023/05/04 22:25:36;;;;;;;13.40;6.90;;;;;;;12.59;56.17;101107.38;214307;1288;137878;-84
2023/05/04 22:30:37;;;;;;;17.30;8.30;;;;;;;12.53;56.26;101106.12;213799;1288;138094;-84
2023/05/04 22:35:37;;;;;;;17.70;8.20;;;;;;;12.49;56.65;101111.48;214614;1288;138296;-84
2023/05/04 22:40:38;;;;;;;14.40;7.60;;;;;;;12.42;56.56;101107.38;214402;1288;138186;-84